Time,TemperatureF,DewpointF,PressureIn,WindDirection,WindDirectionDegrees,WindSpeedMPH,WindSpeedGustMPH,Humidity,HourlyPrecipIn,Conditions,Clouds,dailyrainin,SoftwareType,DateUTC
2013-05-23 00:00:00,50.0,47.7,29.92,West,270,0.4,1.1,92,0.00,,,0.00,WUHU216HW,2013-05-23 04:00:00,
2013-05-23 00:01:00,50.0,47.7,29.92,West,270,0.7,1.1,92,0.00,,,0.00,WUHU216HW,2013-05-23 04:01:00,
2013-05-23 00:06:00,50.0,48.0,29.92,WNW,293,0.7,1.1,93,0.00,,,0.00,WUHU216HW,2013-05-23 04:06:00,
2013-05-23 00:11:00,50.0,48.0,29.92,WNW,293,0.7,1.1,93,0.00,,,0.00,WUHU216HW,2013-05-23 04:11:00,
2013-05-23 00:16:00,50.0,48.0,29.92,NNW,338,0.4,0.9,93,0.00,,,0.00,WUHU216HW,2013-05-23 04:16:00,
2013-05-23 00:21:00,50.0,48.0,29.92,SSW,203,0.4,1.1,93,0.00,,,0.00,WUHU216HW,2013-05-23 04:21:00,
2013-05-23 00:26:00,50.0,48.0,29.92,NW,315,0.7,1.1,93,0.00,,,0.00,WUHU216HW,2013-05-23 04:26:00,
2013-05-23 00:31:00,50.0,48.0,29.92,West,270,0.7,0.9,93,0.00,,,0.00,WUHU216HW,2013-05-23 04:31:00,
2013-05-23 00:36:00,49.8,47.5,29.92,West,270,0.0,1.1,92,0.00,,,0.00,WUHU216HW,2013-05-23 04:36:00,
2013-05-23 00:41:00,50.0,47.7,29.92,WSW,248,0.0,1.1,92,0.00,,,0.00,WUHU216HW,2013-05-23 04:41:00,
2013-05-23 00:46:00,49.8,47.5,29.92,WNW,293,0.2,0.7,92,0.00,,,0.00,WUHU216HW,2013-05-23 04:46:00,
2013-05-23 00:51:00,49.8,47.5,29.91,North,0,0.4,1.6,92,0.00,,,0.00,WUHU216HW,2013-05-23 04:51:00,
2013-05-23 00:56:00,49.8,47.5,29.91,West,270,0.4,1.6,92,0.00,,,0.00,WUHU216HW,2013-05-23 04:56:00,
2013-05-23 01:01:00,49.8,47.5,29.90,SSW,203,0.7,1.1,92,0.00,,,0.00,WUHU216HW,2013-05-23 05:01:00,
2013-05-23 01:06:00,49.8,47.5,29.91,WNW,293,0.7,1.6,92,0.00,,,0.00,WUHU216HW,2013-05-23 05:06:00,
2013-05-23 01:11:00,49.8,47.5,29.91,WSW,248,0.7,1.6,92,0.00,,,0.00,WUHU216HW,2013-05-23 05:11:00,
2013-05-23 01:16:00,49.8,47.5,29.91,SW,225,0.4,1.3,92,0.00,,,0.00,WUHU216HW,2013-05-23 05:16:00,
2013-05-23 01:21:00,49.8,47.5,29.91,WNW,293,0.4,1.1,92,0.00,,,0.00,WUHU216HW,2013-05-23 05:21:00,
2013-05-23 01:26:00,49.8,47.5,29.91,ENE,68,0.0,1.1,92,0.00,,,0.00,WUHU216HW,2013-05-23 05:26:00,
2013-05-23 01:31:00,49.8,47.5,29.91,NW,315,0.7,1.1,92,0.00,,,0.00,WUHU216HW,2013-05-23 05:31:00,
2013-05-23 01:36:00,49.8,47.5,29.90,West,270,0.7,0.9,92,0.00,,,0.00,WUHU216HW,2013-05-23 05:36:00,
2013-05-23 01:41:00,49.8,47.5,29.90,WSW,248,0.4,1.3,92,0.00,,,0.00,WUHU216HW,2013-05-23 05:41:00,
2013-05-23 01:46:00,49.8,47.5,29.90,West,270,0.7,1.3,92,0.00,,,0.00,WUHU216HW,2013-05-23 05:46:00,
2013-05-23 01:51:00,49.6,47.3,29.90,WSW,248,0.9,1.3,92,0.00,,,0.00,WUHU216HW,2013-05-23 05:51:00,
2013-05-23 01:56:00,49.6,47.3,29.90,NNW,338,0.2,1.3,92,0.00,,,0.00,WUHU216HW,2013-05-23 05:56:00,
2013-05-23 02:01:00,49.6,47.3,29.90,WNW,293,0.9,0.9,92,0.00,,,0.00,WUHU216HW,2013-05-23 06:01:00,
2013-05-23 02:06:00,49.6,47.3,29.90,NNW,338,0.0,1.1,92,0.00,,,0.00,WUHU216HW,2013-05-23 06:06:00,
2013-05-23 02:11:00,49.8,47.5,29.90,WSW,248,0.4,1.1,92,0.00,,,0.00,WUHU216HW,2013-05-23 06:11:00,
2013-05-23 02:16:00,49.6,47.3,29.90,West,270,0.0,0.9,92,0.00,,,0.00,WUHU216HW,2013-05-23 06:16:00,
2013-05-23 02:21:00,49.6,47.3,29.90,WSW,248,0.0,0.9,92,0.00,,,0.00,WUHU216HW,2013-05-23 06:21:00,
2013-05-23 02:26:00,49.8,47.5,29.90,WNW,293,0.4,0.9,92,0.00,,,0.00,WUHU216HW,2013-05-23 06:26:00,
2013-05-23 02:31:00,49.8,47.5,29.90,WNW,293,0.0,0.9,92,0.00,,,0.00,WUHU216HW,2013-05-23 06:31:00,
2013-05-23 02:36:00,49.8,47.5,29.90,NNW,338,0.0,0.9,92,0.00,,,0.00,WUHU216HW,2013-05-23 06:36:00,
2013-05-23 02:41:00,49.8,47.5,29.90,South,180,0.4,0.9,92,0.01,,,0.01,WUHU216HW,2013-05-23 06:41:00,
2013-05-23 02:46:00,49.8,47.5,29.90,WSW,248,0.4,1.6,92,0.01,,,0.01,WUHU216HW,2013-05-23 06:46:00,
2013-05-23 02:51:00,49.6,47.3,29.90,SSW,203,0.4,1.6,92,0.01,,,0.01,WUHU216HW,2013-05-23 06:51:00,
2013-05-23 02:56:00,49.6,47.3,29.89,SW,225,0.7,0.9,92,0.01,,,0.01,WUHU216HW,2013-05-23 06:56:00,
2013-05-23 03:01:00,49.6,47.3,29.89,NW,315,0.9,1.1,92,0.01,,,0.01,WUHU216HW,2013-05-23 07:01:00,
2013-05-23 03:06:00,49.4,47.1,29.89,WNW,293,0.7,1.1,92,0.01,,,0.01,WUHU216HW,2013-05-23 07:06:00,
2013-05-23 03:11:00,49.4,47.1,29.88,WSW,248,1.3,1.3,92,0.01,,,0.01,WUHU216HW,2013-05-23 07:11:00,
2013-05-23 03:16:00,49.4,47.1,29.88,SW,225,0.7,1.3,92,0.01,,,0.01,WUHU216HW,2013-05-23 07:16:00,
2013-05-23 03:21:00,49.4,47.1,29.88,WNW,293,1.1,1.3,92,0.01,,,0.01,WUHU216HW,2013-05-23 07:21:00,
2013-05-23 03:26:00,49.4,47.1,29.87,West,270,0.9,1.8,92,0.01,,,0.01,WUHU216HW,2013-05-23 07:26:00,
2013-05-23 03:31:00,49.4,47.1,29.87,West,270,0.9,1.8,92,0.01,,,0.01,WUHU216HW,2013-05-23 07:31:00,
2013-05-23 03:36:00,49.4,47.4,29.88,West,270,0.7,1.3,93,0.01,,,0.01,WUHU216HW,2013-05-23 07:36:00,
2013-05-23 03:41:00,49.4,47.4,29.88,ENE,68,0.7,1.3,93,0.00,,,0.01,WUHU216HW,2013-05-23 07:41:00,
2013-05-23 03:46:00,49.3,47.3,29.87,West,270,0.7,1.3,93,0.00,,,0.01,WUHU216HW,2013-05-23 07:46:00,
2013-05-23 03:51:00,49.3,47.3,29.87,NW,315,1.3,1.3,93,0.00,,,0.01,WUHU216HW,2013-05-23 07:51:00,
2013-05-23 03:56:00,49.4,47.4,29.87,NW,315,0.4,1.3,93,0.00,,,0.01,WUHU216HW,2013-05-23 07:56:00,
2013-05-23 04:01:00,49.4,47.4,29.87,WSW,248,0.9,1.6,93,0.00,,,0.01,WUHU216HW,2013-05-23 08:01:00,
2013-05-23 04:06:00,49.4,47.4,29.87,WNW,293,0.7,1.6,93,0.00,,,0.01,WUHU216HW,2013-05-23 08:06:00,
2013-05-23 04:11:00,49.4,47.4,29.87,NW,315,0.4,1.6,93,0.00,,,0.01,WUHU216HW,2013-05-23 08:11:00,
2013-05-23 04:16:00,49.4,47.4,29.87,WSW,248,0.4,1.1,93,0.00,,,0.01,WUHU216HW,2013-05-23 08:16:00,
2013-05-23 04:21:00,49.4,47.4,29.87,ESE,113,0.9,1.6,93,0.00,,,0.01,WUHU216HW,2013-05-23 08:21:00,
2013-05-23 04:26:00,49.4,47.4,29.87,South,180,0.7,1.6,93,0.00,,,0.01,WUHU216HW,2013-05-23 08:26:00,
2013-05-23 04:31:00,49.4,47.4,29.87,NW,315,1.1,1.1,93,0.00,,,0.01,WUHU216HW,2013-05-23 08:31:00,
2013-05-23 04:36:00,49.4,47.4,29.87,WNW,293,0.2,1.1,93,0.00,,,0.01,WUHU216HW,2013-05-23 08:36:00,
2013-05-23 04:41:00,49.4,47.4,29.87,WNW,293,0.9,1.3,93,0.00,,,0.01,WUHU216HW,2013-05-23 08:41:00,
2013-05-23 04:46:00,49.4,47.4,29.87,SSW,203,0.0,1.3,93,0.00,,,0.01,WUHU216HW,2013-05-23 08:46:00,
2013-05-23 04:51:00,49.4,47.4,29.87,WSW,248,0.4,0.9,93,0.00,,,0.01,WUHU216HW,2013-05-23 08:51:00,
2013-05-23 04:56:00,49.4,47.4,29.87,NW,315,0.4,1.1,93,0.00,,,0.01,WUHU216HW,2013-05-23 08:56:00,
2013-05-23 05:01:00,49.4,47.4,29.87,SW,225,0.4,1.1,93,0.00,,,0.01,WUHU216HW,2013-05-23 09:01:00,
2013-05-23 05:06:00,49.4,47.4,29.87,WNW,293,0.0,0.7,93,0.00,,,0.01,WUHU216HW,2013-05-23 09:06:00,
2013-05-23 05:11:00,49.4,47.4,29.88,SW,225,0.0,0.7,93,0.00,,,0.01,WUHU216HW,2013-05-23 09:11:00,
2013-05-23 05:16:00,49.4,47.4,29.88,WNW,293,0.0,0.7,93,0.00,,,0.01,WUHU216HW,2013-05-23 09:16:00,
2013-05-23 05:21:00,49.4,47.4,29.88,WSW,248,0.0,0.7,93,0.00,,,0.01,WUHU216HW,2013-05-23 09:21:00,
2013-05-23 05:26:00,49.4,47.4,29.88,WNW,293,0.4,0.4,93,0.00,,,0.01,WUHU216HW,2013-05-23 09:26:00,
2013-05-23 05:31:00,49.4,47.4,29.88,North,0,0.0,0.7,93,0.00,,,0.01,WUHU216HW,2013-05-23 09:31:00,
2013-05-23 05:36:00,49.6,47.6,29.88,NW,315,0.0,0.7,93,0.00,,,0.01,WUHU216HW,2013-05-23 09:36:00,
2013-05-23 05:41:00,49.6,47.6,29.89,NW,315,0.0,0.4,93,0.00,,,0.01,WUHU216HW,2013-05-23 09:41:00,
2013-05-23 05:46:00,49.6,47.6,29.89,NW,315,0.0,0.4,93,0.00,,,0.01,WUHU216HW,2013-05-23 09:46:00,
2013-05-23 05:51:00,49.8,47.8,29.88,WNW,293,0.0,0.2,93,0.00,,,0.01,WUHU216HW,2013-05-23 09:51:00,
2013-05-23 05:56:00,49.8,47.8,29.88,NW,315,0.0,0.4,93,0.00,,,0.01,WUHU216HW,2013-05-23 09:56:00,
2013-05-23 06:01:00,49.6,47.6,29.88,West,270,0.4,0.9,93,0.00,,,0.01,WUHU216HW,2013-05-23 10:01:00,
2013-05-23 06:06:00,49.8,47.9,29.88,WNW,293,0.2,0.9,93,0.00,,,0.01,WUHU216HW,2013-05-23 10:06:00,
2013-05-23 06:11:00,49.9,47.9,29.89,NW,315,0.2,0.9,93,0.00,,,0.01,WUHU216HW,2013-05-23 10:11:00,
2013-05-23 06:16:00,49.9,47.9,29.89,North,0,0.0,0.9,93,0.00,,,0.01,WUHU216HW,2013-05-23 10:16:00,
2013-05-23 06:21:00,50.2,48.2,29.90,WSW,248,0.0,0.4,93,0.00,,,0.01,WUHU216HW,2013-05-23 10:21:00,
2013-05-23 06:26:00,50.2,48.2,29.90,NW,315,0.0,0.4,93,0.00,,,0.01,WUHU216HW,2013-05-23 10:26:00,
2013-05-23 06:31:00,50.2,48.2,29.90,WNW,293,0.0,0.4,93,0.00,,,0.01,WUHU216HW,2013-05-23 10:31:00,
2013-05-23 06:36:00,50.5,48.5,29.90,WSW,248,0.0,0.4,93,0.00,,,0.01,WUHU216HW,2013-05-23 10:36:00,
2013-05-23 06:41:00,50.5,48.5,29.90,WSW,248,0.0,0.0,93,0.00,,,0.01,WUHU216HW,2013-05-23 10:41:00,
2013-05-23 06:46:00,50.5,48.5,29.90,West,270,0.0,0.7,93,0.00,,,0.01,WUHU216HW,2013-05-23 10:46:00,
2013-05-23 06:51:00,50.6,48.6,29.90,ESE,113,0.0,0.7,93,0.00,,,0.01,WUHU216HW,2013-05-23 10:51:00,
2013-05-23 06:56:00,50.9,49.2,29.90,SE,135,0.0,0.4,94,0.00,,,0.01,WUHU216HW,2013-05-23 10:56:00,
2013-05-23 07:01:00,50.7,49.0,29.89,SW,225,0.0,0.2,94,0.00,,,0.01,WUHU216HW,2013-05-23 11:01:00,
2013-05-23 07:06:00,51.0,49.3,29.90,West,270,0.0,0.7,94,0.00,,,0.01,WUHU216HW,2013-05-23 11:06:00,
2013-05-23 07:11:00,51.0,49.3,29.90,NW,315,0.0,0.7,94,0.00,,,0.01,WUHU216HW,2013-05-23 11:11:00,
2013-05-23 07:16:00,51.2,49.5,29.90,WNW,293,0.0,0.4,94,0.00,,,0.01,WUHU216HW,2013-05-23 11:16:00,
2013-05-23 07:21:00,51.3,49.6,29.90,WNW,293,0.0,0.4,94,0.00,,,0.01,WUHU216HW,2013-05-23 11:21:00,
2013-05-23 07:26:00,51.5,49.8,29.90,North,0,0.0,0.0,94,0.00,,,0.01,WUHU216HW,2013-05-23 11:26:00,
2013-05-23 07:31:00,51.5,49.8,29.90,NNW,338,0.0,0.2,94,0.00,,,0.01,WUHU216HW,2013-05-23 11:31:00,
2013-05-23 07:36:00,51.6,49.9,29.90,NNW,338,0.4,0.4,94,0.00,,,0.01,WUHU216HW,2013-05-23 11:36:00,
2013-05-23 07:41:00,51.6,49.9,29.89,NW,315,1.3,1.3,94,0.00,,,0.01,WUHU216HW,2013-05-23 11:41:00,
2013-05-23 07:46:00,51.4,49.7,29.90,NW,315,0.9,1.3,94,0.00,,,0.01,WUHU216HW,2013-05-23 11:46:00,
2013-05-23 07:51:00,51.7,50.0,29.90,WNW,293,0.0,1.3,94,0.00,,,0.01,WUHU216HW,2013-05-23 11:51:00,
2013-05-23 07:56:00,51.7,50.0,29.89,WSW,248,0.4,0.9,94,0.00,,,0.01,WUHU216HW,2013-05-23 11:56:00,
2013-05-23 08:01:00,51.7,50.0,29.89,West,270,0.7,1.3,94,0.00,,,0.01,WUHU216HW,2013-05-23 12:01:00,
2013-05-23 08:06:00,51.8,50.1,29.89,WSW,248,0.4,1.3,94,0.00,,,0.01,WUHU216HW,2013-05-23 12:06:00,
2013-05-23 08:11:00,51.8,50.1,29.89,NW,315,0.9,1.1,94,0.00,,,0.01,WUHU216HW,2013-05-23 12:11:00,
2013-05-23 08:16:00,52.0,50.3,29.89,West,270,0.4,1.1,94,0.00,,,0.01,WUHU216HW,2013-05-23 12:16:00,
2013-05-23 08:21:00,52.1,50.4,29.89,West,270,1.1,1.1,94,0.00,,,0.01,WUHU216HW,2013-05-23 12:21:00,
2013-05-23 08:26:00,52.2,50.5,29.89,WNW,293,0.0,1.1,94,0.00,,,0.01,WUHU216HW,2013-05-23 12:26:00,
2013-05-23 08:31:00,52.4,50.7,29.90,WSW,248,0.4,1.1,94,0.00,,,0.01,WUHU216HW,2013-05-23 12:31:00,
2013-05-23 08:36:00,52.7,50.9,29.89,NW,315,0.4,1.1,94,0.00,,,0.01,WUHU216HW,2013-05-23 12:36:00,
2013-05-23 08:41:00,52.7,51.0,29.89,WSW,248,0.4,1.1,94,0.00,,,0.01,WUHU216HW,2013-05-23 12:41:00,
2013-05-23 08:46:00,52.9,51.2,29.89,West,270,0.4,1.1,94,0.00,,,0.01,WUHU216HW,2013-05-23 12:46:00,
2013-05-23 08:51:00,52.7,51.0,29.89,South,180,0.9,1.1,94,0.00,,,0.01,WUHU216HW,2013-05-23 12:51:00,
2013-05-23 08:56:00,53.0,51.3,29.90,SW,225,0.7,1.1,94,0.00,,,0.01,WUHU216HW,2013-05-23 12:56:00,
2013-05-23 09:01:00,53.0,51.3,29.90,NW,315,0.2,0.7,94,0.00,,,0.01,WUHU216HW,2013-05-23 13:01:00,
2013-05-23 09:06:00,52.8,51.1,29.90,NNW,338,0.4,0.7,94,0.00,,,0.01,WUHU216HW,2013-05-23 13:06:00,
2013-05-23 09:11:00,52.9,51.1,29.90,SSW,203,0.0,0.7,94,0.00,,,0.01,WUHU216HW,2013-05-23 13:11:00,
2013-05-23 09:16:00,53.1,51.4,29.90,WSW,248,0.7,0.7,94,0.00,,,0.01,WUHU216HW,2013-05-23 13:16:00,
2013-05-23 09:21:00,52.9,51.2,29.89,SSE,158,0.9,0.9,94,0.00,,,0.01,WUHU216HW,2013-05-23 13:21:00,
2013-05-23 09:26:00,53.1,51.4,29.88,SW,225,0.4,0.9,94,0.00,,,0.01,WUHU216HW,2013-05-23 13:26:00,
2013-05-23 09:31:00,53.4,51.6,29.88,West,270,0.4,1.1,94,0.00,,,0.01,WUHU216HW,2013-05-23 13:31:00,
2013-05-23 09:36:00,53.5,51.8,29.88,NW,315,0.4,1.1,94,0.00,,,0.01,WUHU216HW,2013-05-23 13:36:00,
2013-05-23 09:41:00,53.7,52.0,29.88,SSW,203,0.4,1.1,94,0.00,,,0.01,WUHU216HW,2013-05-23 13:41:00,
2013-05-23 09:46:00,53.5,51.8,29.88,ESE,113,1.8,2.9,94,0.00,,,0.01,WUHU216HW,2013-05-23 13:46:00,
2013-05-23 09:51:00,53.4,51.7,29.89,East,90,1.1,2.9,94,0.00,,,0.01,WUHU216HW,2013-05-23 13:51:00,
2013-05-23 09:56:00,53.5,51.7,29.89,ESE,113,1.8,2.5,94,0.00,,,0.01,WUHU216HW,2013-05-23 13:56:00,
2013-05-23 10:01:00,53.5,51.8,29.89,SE,135,0.7,2.0,94,0.00,,,0.01,WUHU216HW,2013-05-23 14:01:00,
2013-05-23 10:06:00,53.5,51.8,29.89,ESE,113,1.8,2.0,94,0.00,,,0.01,WUHU216HW,2013-05-23 14:06:00,
2013-05-23 10:11:00,53.5,51.8,29.89,ESE,113,1.3,3.4,94,0.00,,,0.01,WUHU216HW,2013-05-23 14:11:00,
2013-05-23 10:16:00,53.1,51.4,29.89,SE,135,2.2,3.4,94,0.00,,,0.01,WUHU216HW,2013-05-23 14:16:00,
2013-05-23 10:21:00,53.2,51.4,29.89,SE,135,2.0,2.9,94,0.00,,,0.01,WUHU216HW,2013-05-23 14:21:00,
2013-05-23 10:26:00,53.0,51.3,29.89,East,90,2.5,2.7,94,0.00,,,0.01,WUHU216HW,2013-05-23 14:26:00,
2013-05-23 10:31:00,53.0,51.3,29.89,ESE,113,1.1,2.5,94,0.00,,,0.01,WUHU216HW,2013-05-23 14:31:00,
2013-05-23 10:36:00,52.8,51.1,29.89,ESE,113,2.9,2.9,94,0.00,,,0.01,WUHU216HW,2013-05-23 14:36:00,
2013-05-23 10:41:00,53.0,51.3,29.89,ESE,113,1.3,2.9,94,0.00,,,0.01,WUHU216HW,2013-05-23 14:41:00,
2013-05-23 10:46:00,53.2,51.2,29.88,East,90,1.8,3.1,93,0.00,,,0.01,WUHU216HW,2013-05-23 14:46:00,
2013-05-23 10:51:00,53.7,51.6,29.88,ESE,113,2.9,3.1,93,0.00,,,0.01,WUHU216HW,2013-05-23 14:51:00,
2013-05-23 10:56:00,53.5,51.5,29.87,ESE,113,2.9,6.3,93,0.00,,,0.01,WUHU216HW,2013-05-23 14:56:00,
2013-05-23 11:01:00,53.7,51.7,29.87,ESE,113,2.5,6.3,93,0.00,,,0.01,WUHU216HW,2013-05-23 15:01:00,
2013-05-23 11:06:00,53.7,51.7,29.88,ESE,113,2.9,4.0,93,0.00,,,0.01,WUHU216HW,2013-05-23 15:06:00,
2013-05-23 11:11:00,53.3,51.3,29.88,SSE,158,3.4,4.3,93,0.00,,,0.01,WUHU216HW,2013-05-23 15:11:00,
2013-05-23 11:16:00,53.3,51.3,29.88,SE,135,3.4,4.5,93,0.00,,,0.01,WUHU216HW,2013-05-23 15:16:00,
2013-05-23 11:21:00,53.7,51.4,29.89,SSE,158,3.6,4.7,92,0.00,,,0.01,WUHU216HW,2013-05-23 15:21:00,
2013-05-23 11:26:00,53.7,51.4,29.88,SE,135,3.6,4.7,92,0.00,,,0.01,WUHU216HW,2013-05-23 15:26:00,
2013-05-23 11:31:00,53.7,51.4,29.88,ESE,113,4.0,4.9,92,0.00,,,0.01,WUHU216HW,2013-05-23 15:31:00,
2013-05-23 11:36:00,54.1,51.7,29.87,SE,135,4.0,4.9,92,0.00,,,0.01,WUHU216HW,2013-05-23 15:36:00,
2013-05-23 11:41:00,54.1,51.8,29.87,SE,135,3.6,4.9,92,0.00,,,0.01,WUHU216HW,2013-05-23 15:41:00,
2013-05-23 11:46:00,54.5,52.2,29.87,ESE,113,2.5,4.7,92,0.00,,,0.01,WUHU216HW,2013-05-23 15:46:00,
2013-05-23 11:51:00,54.1,51.8,29.87,SE,135,2.0,5.6,92,0.00,,,0.01,WUHU216HW,2013-05-23 15:51:00,
2013-05-23 11:56:00,54.1,51.8,29.87,SE,135,2.2,5.6,92,0.00,,,0.01,WUHU216HW,2013-05-23 15:56:00,
2013-05-23 12:01:00,54.7,52.4,29.87,ESE,113,3.4,4.0,92,0.00,,,0.01,WUHU216HW,2013-05-23 16:01:00,
2013-05-23 12:06:00,54.8,52.5,29.88,SSE,158,3.4,3.8,92,0.00,,,0.01,WUHU216HW,2013-05-23 16:06:00,
2013-05-23 12:11:00,55.2,52.6,29.88,SE,135,2.9,4.5,91,0.00,,,0.01,WUHU216HW,2013-05-23 16:11:00,
2013-05-23 12:16:00,55.2,52.6,29.88,SE,135,4.3,4.5,91,0.00,,,0.01,WUHU216HW,2013-05-23 16:16:00,
2013-05-23 12:21:00,55.2,52.6,29.87,ESE,113,3.1,4.7,91,0.00,,,0.01,WUHU216HW,2013-05-23 16:21:00,
2013-05-23 12:26:00,55.4,52.5,29.88,ESE,113,2.2,4.7,90,0.00,,,0.01,WUHU216HW,2013-05-23 16:26:00,
2013-05-23 12:31:00,55.6,52.7,29.87,ESE,113,3.4,5.1,90,0.00,,,0.01,WUHU216HW,2013-05-23 16:31:00,
2013-05-23 12:36:00,55.7,52.5,29.87,ESE,113,3.1,5.1,89,0.00,,,0.01,WUHU216HW,2013-05-23 16:36:00,
2013-05-23 12:41:00,55.7,52.5,29.87,ESE,113,1.8,4.0,89,0.00,,,0.01,WUHU216HW,2013-05-23 16:41:00,
2013-05-23 12:46:00,56.1,52.9,29.86,East,90,2.5,4.0,89,0.00,,,0.01,WUHU216HW,2013-05-23 16:46:00,
2013-05-23 12:51:00,56.1,52.9,29.86,ESE,113,2.9,4.0,89,0.00,,,0.01,WUHU216HW,2013-05-23 16:51:00,
2013-05-23 12:56:00,55.9,52.4,29.87,ESE,113,3.4,4.3,88,0.00,,,0.01,WUHU216HW,2013-05-23 16:56:00,
2013-05-23 13:01:00,55.9,52.4,29.86,ESE,113,3.4,4.5,88,0.00,,,0.01,WUHU216HW,2013-05-23 17:01:00,
2013-05-23 13:06:00,56.3,52.8,29.86,SE,135,3.4,4.5,88,0.00,,,0.01,WUHU216HW,2013-05-23 17:06:00,
2013-05-23 13:11:00,56.3,52.7,29.86,ESE,113,4.0,4.7,88,0.00,,,0.01,WUHU216HW,2013-05-23 17:11:00,
2013-05-23 13:16:00,56.5,52.9,29.85,North,0,0.9,4.7,88,0.00,,,0.01,WUHU216HW,2013-05-23 17:16:00,
2013-05-23 13:21:00,57.2,53.6,29.85,North,0,0.7,4.0,88,0.00,,,0.01,WUHU216HW,2013-05-23 17:21:00,
2013-05-23 13:26:00,58.3,55.0,29.85,ENE,68,1.6,3.4,89,0.00,,,0.01,WUHU216HW,2013-05-23 17:26:00,
2013-05-23 13:31:00,59.2,55.7,29.85,SE,135,2.5,2.7,88,0.00,,,0.01,WUHU216HW,2013-05-23 17:31:00,
2013-05-23 13:36:00,59.4,55.2,29.85,SW,225,0.4,3.6,86,0.00,,,0.01,WUHU216HW,2013-05-23 17:36:00,
2013-05-23 13:41:00,60.3,55.5,29.84,East,90,1.8,4.3,84,0.00,,,0.01,WUHU216HW,2013-05-23 17:41:00,
2013-05-23 13:46:00,60.7,55.5,29.84,SE,135,1.8,5.4,83,0.00,,,0.01,WUHU216HW,2013-05-23 17:46:00,
2013-05-23 13:51:00,60.7,55.2,29.84,SW,225,1.1,5.4,82,0.00,,,0.01,WUHU216HW,2013-05-23 17:51:00,
2013-05-23 13:56:00,60.7,55.2,29.84,West,270,0.9,4.3,82,0.00,,,0.01,WUHU216HW,2013-05-23 17:56:00,
2013-05-23 14:01:00,60.9,55.7,29.83,SW,225,0.7,2.2,83,0.00,,,0.01,WUHU216HW,2013-05-23 18:01:00,
2013-05-23 14:06:00,61.0,55.1,29.83,WNW,293,0.9,2.7,81,0.00,,,0.01,WUHU216HW,2013-05-23 18:06:00,
2013-05-23 14:11:00,61.4,55.8,29.83,NW,315,0.9,2.7,82,0.00,,,0.01,WUHU216HW,2013-05-23 18:11:00,
2013-05-23 14:16:00,61.7,56.2,29.83,NW,315,1.1,1.8,82,0.00,,,0.01,WUHU216HW,2013-05-23 18:16:00,
2013-05-23 14:21:00,62.6,56.8,29.82,WSW,248,0.9,1.8,81,0.00,,,0.01,WUHU216HW,2013-05-23 18:21:00,
2013-05-23 14:26:00,63.6,57.7,29.82,WNW,293,1.1,1.8,81,0.00,,,0.01,WUHU216HW,2013-05-23 18:26:00,
2013-05-23 14:31:00,64.7,58.1,29.82,ENE,68,1.8,1.8,79,0.00,,,0.01,WUHU216HW,2013-05-23 18:31:00,
2013-05-23 14:36:00,64.9,57.2,29.83,East,90,2.2,3.1,76,0.00,,,0.01,WUHU216HW,2013-05-23 18:36:00,
2013-05-23 14:41:00,64.5,57.2,29.83,NNW,338,0.7,3.1,77,0.00,,,0.01,WUHU216HW,2013-05-23 18:41:00,
2013-05-23 14:46:00,63.7,55.8,29.83,West,270,1.1,3.8,75,0.00,,,0.01,WUHU216HW,2013-05-23 18:46:00,
2013-05-23 14:51:00,63.4,56.2,29.83,WSW,248,0.4,3.8,77,0.00,,,0.01,WUHU216HW,2013-05-23 18:51:00,
2013-05-23 14:56:00,63.0,56.1,29.83,WNW,293,1.1,1.1,78,0.00,,,0.01,WUHU216HW,2013-05-23 18:56:00,
2013-05-23 15:01:00,62.8,56.2,29.83,NW,315,0.9,1.1,79,0.00,,,0.01,WUHU216HW,2013-05-23 19:01:00,
2013-05-23 15:06:00,62.1,54.8,29.83,WSW,248,1.1,1.3,77,0.00,,,0.01,WUHU216HW,2013-05-23 19:06:00,
2013-05-23 15:11:00,61.5,54.7,29.82,SSW,203,0.4,1.3,78,0.00,,,0.01,WUHU216HW,2013-05-23 19:11:00,
2013-05-23 15:16:00,61.3,54.8,29.82,WNW,293,1.1,1.1,79,0.00,,,0.01,WUHU216HW,2013-05-23 19:16:00,
2013-05-23 15:21:00,61.5,55.0,29.82,North,0,1.1,1.1,79,0.00,,,0.01,WUHU216HW,2013-05-23 19:21:00,
2013-05-23 15:26:00,62.0,55.8,29.82,NNW,338,0.4,1.3,80,0.00,,,0.01,WUHU216HW,2013-05-23 19:26:00,
2013-05-23 15:31:00,63.0,56.8,29.82,WNW,293,0.4,1.3,80,0.00,,,0.01,WUHU216HW,2013-05-23 19:31:00,
2013-05-23 15:36:00,64.4,58.5,29.82,NW,315,1.1,1.1,81,0.00,,,0.01,WUHU216HW,2013-05-23 19:36:00,
2013-05-23 15:41:00,65.5,58.9,29.82,West,270,0.4,2.0,79,0.00,,,0.01,WUHU216HW,2013-05-23 19:41:00,
2013-05-23 15:46:00,66.2,59.2,29.82,WNW,293,1.1,2.0,78,0.00,,,0.01,WUHU216HW,2013-05-23 19:46:00,
2013-05-23 15:51:00,66.5,58.9,29.82,ENE,68,1.1,2.5,76,0.00,,,0.01,WUHU216HW,2013-05-23 19:51:00,
2013-05-23 15:56:00,66.7,61.1,29.81,ESE,113,4.9,7.8,82,0.00,,,0.01,WUHU216HW,2013-05-23 19:56:00,
2013-05-23 16:01:00,68.8,64.1,29.82,SSW,203,7.6,7.8,85,0.00,,,0.01,WUHU216HW,2013-05-23 20:01:00,
2013-05-23 16:06:00,72.2,66.1,29.81,South,180,5.1,9.2,81,0.00,,,0.01,WUHU216HW,2013-05-23 20:06:00,
2013-05-23 16:11:00,73.8,66.7,29.81,NW,315,8.3,9.2,78,0.00,,,0.01,WUHU216HW,2013-05-23 20:11:00,
2013-05-23 16:16:00,74.1,65.8,29.82,South,180,6.0,11.4,75,0.00,,,0.01,WUHU216HW,2013-05-23 20:16:00,
2013-05-23 16:21:00,74.1,65.8,29.82,East,90,6.7,11.4,75,0.00,,,0.01,WUHU216HW,2013-05-23 20:21:00,
2013-05-23 16:26:00,74.2,66.0,29.82,SSW,203,3.6,8.5,75,0.00,,,0.01,WUHU216HW,2013-05-23 20:26:00,
2013-05-23 16:31:00,74.2,65.9,29.81,SSW,203,4.0,8.3,75,0.00,,,0.01,WUHU216HW,2013-05-23 20:31:00,
2013-05-23 16:36:00,74.2,65.9,29.82,SW,225,5.4,8.3,75,0.00,,,0.01,WUHU216HW,2013-05-23 20:36:00,
2013-05-23 16:41:00,74.2,65.9,29.82,West,270,2.7,8.5,75,0.00,,,0.01,WUHU216HW,2013-05-23 20:41:00,
2013-05-23 16:46:00,74.1,65.8,29.82,WSW,248,5.8,8.5,75,0.00,,,0.01,WUHU216HW,2013-05-23 20:46:00,
2013-05-23 16:51:00,73.9,65.6,29.82,SW,225,4.3,6.9,75,0.00,,,0.01,WUHU216HW,2013-05-23 20:51:00,
2013-05-23 16:56:00,73.9,65.6,29.82,South,180,2.9,8.5,75,0.00,,,0.01,WUHU216HW,2013-05-23 20:56:00,
2013-05-23 17:01:00,73.8,65.2,29.82,SSW,203,6.0,8.5,74,0.00,,,0.01,WUHU216HW,2013-05-23 21:01:00,
2013-05-23 17:06:00,73.8,65.5,29.82,SW,225,4.9,8.3,75,0.00,,,0.01,WUHU216HW,2013-05-23 21:06:00,
2013-05-23 17:11:00,73.6,65.3,29.82,WSW,248,3.4,7.6,75,0.00,,,0.01,WUHU216HW,2013-05-23 21:11:00,
2013-05-23 17:16:00,73.4,65.2,29.82,SSW,203,2.7,4.7,75,0.00,,,0.01,WUHU216HW,2013-05-23 21:16:00,
2013-05-23 17:21:00,73.2,64.9,29.82,SW,225,5.6,7.2,75,0.00,,,0.01,WUHU216HW,2013-05-23 21:21:00,
2013-05-23 17:26:00,73.4,65.1,29.82,South,180,5.4,7.2,75,0.00,,,0.01,WUHU216HW,2013-05-23 21:26:00,
2013-05-23 17:31:00,73.1,64.9,29.82,South,180,5.1,6.3,75,0.00,,,0.01,WUHU216HW,2013-05-23 21:31:00,
2013-05-23 17:36:00,73.1,64.8,29.82,South,180,4.0,6.7,75,0.00,,,0.01,WUHU216HW,2013-05-23 21:36:00,
2013-05-23 17:41:00,73.1,64.8,29.81,SSE,158,6.3,7.6,75,0.00,,,0.01,WUHU216HW,2013-05-23 21:41:00,
2013-05-23 17:46:00,73.0,64.8,29.81,SSW,203,5.4,7.6,75,0.00,,,0.01,WUHU216HW,2013-05-23 21:46:00,
2013-05-23 17:51:00,72.8,64.6,29.81,SSW,203,4.7,9.4,75,0.00,,,0.01,WUHU216HW,2013-05-23 21:51:00,
2013-05-23 17:56:00,72.8,64.5,29.82,SSW,203,6.5,9.4,75,0.00,,,0.01,WUHU216HW,2013-05-23 21:56:00,
2013-05-23 18:01:00,72.5,63.9,29.82,SSW,203,5.8,9.2,74,0.00,,,0.01,WUHU216HW,2013-05-23 22:01:00,
2013-05-23 18:06:00,72.5,63.9,29.82,SW,225,4.7,8.7,74,0.00,,,0.01,WUHU216HW,2013-05-23 22:06:00,
2013-05-23 18:11:00,72.2,63.7,29.81,SSW,203,4.7,8.7,74,0.00,,,0.01,WUHU216HW,2013-05-23 22:11:00,
2013-05-23 18:16:00,72.2,63.6,29.82,SW,225,4.7,8.5,74,0.00,,,0.01,WUHU216HW,2013-05-23 22:16:00,
2013-05-23 18:21:00,72.4,63.8,29.82,WSW,248,4.3,8.5,74,0.00,,,0.01,WUHU216HW,2013-05-23 22:21:00,
2013-05-23 18:26:00,72.3,63.7,29.82,SSW,203,5.8,6.5,74,0.00,,,0.01,WUHU216HW,2013-05-23 22:26:00,
2013-05-23 18:31:00,72.3,63.7,29.81,SSW,203,5.1,6.5,74,0.00,,,0.01,WUHU216HW,2013-05-23 22:31:00,
2013-05-23 18:36:00,71.8,61.6,29.82,SSW,203,4.0,6.5,70,0.00,,,0.01,WUHU216HW,2013-05-23 22:36:00,
2013-05-23 18:41:00,69.0,59.8,29.82,ESE,113,3.4,6.5,72,0.00,,,0.01,WUHU216HW,2013-05-23 22:41:00,
2013-05-23 18:46:00,69.0,61.6,29.82,SSW,203,6.3,8.5,77,0.00,,,0.01,WUHU216HW,2013-05-23 22:46:00,
2013-05-23 18:51:00,70.2,63.1,29.81,SSW,203,6.7,9.4,78,0.00,,,0.01,WUHU216HW,2013-05-23 22:51:00,
2013-05-23 18:56:00,71.0,63.6,29.81,SW,225,5.6,9.4,77,0.00,,,0.01,WUHU216HW,2013-05-23 22:56:00,
2013-05-23 19:01:00,71.4,63.6,29.81,SSW,203,5.4,8.9,76,0.00,,,0.01,WUHU216HW,2013-05-23 23:01:00,
2013-05-23 19:06:00,71.2,63.4,29.82,South,180,7.8,8.5,76,0.00,,,0.01,WUHU216HW,2013-05-23 23:06:00,
2013-05-23 19:11:00,71.2,63.4,29.82,ESE,113,3.6,9.2,76,0.00,,,0.01,WUHU216HW,2013-05-23 23:11:00,
2013-05-23 19:16:00,71.2,63.4,29.82,WSW,248,5.4,9.8,76,0.00,,,0.01,WUHU216HW,2013-05-23 23:16:00,
2013-05-23 19:21:00,71.0,63.2,29.82,SW,225,4.0,9.8,76,0.00,,,0.01,WUHU216HW,2013-05-23 23:21:00,
2013-05-23 19:26:00,70.9,63.1,29.82,SSE,158,9.4,10.5,76,0.00,,,0.01,WUHU216HW,2013-05-23 23:26:00,
2013-05-23 19:31:00,70.7,62.9,29.82,SSE,158,2.9,10.5,76,0.00,,,0.01,WUHU216HW,2013-05-23 23:31:00,
2013-05-23 19:36:00,70.5,63.1,29.82,South,180,5.8,9.6,77,0.00,,,0.01,WUHU216HW,2013-05-23 23:36:00,
2013-05-23 19:41:00,70.5,63.1,29.82,South,180,5.4,7.6,77,0.00,,,0.01,WUHU216HW,2013-05-23 23:41:00,
2013-05-23 19:46:00,70.3,63.2,29.82,SSW,203,7.4,7.6,78,0.00,,,0.01,WUHU216HW,2013-05-23 23:46:00,
2013-05-23 19:51:00,70.1,63.0,29.82,South,180,4.7,10.7,78,0.00,,,0.01,WUHU216HW,2013-05-23 23:51:00,
2013-05-23 19:56:00,70.0,62.6,29.82,SSW,203,4.7,10.7,77,0.00,,,0.01,WUHU216HW,2013-05-23 23:56:00,
2013-05-23 20:01:00,69.8,62.7,29.82,SSE,158,4.9,7.8,78,0.00,,,0.01,WUHU216HW,2013-05-24 00:01:00,
2013-05-23 20:06:00,69.6,62.5,29.82,SSW,203,6.0,9.6,78,0.00,,,0.01,WUHU216HW,2013-05-24 00:06:00,
2013-05-23 20:11:00,69.4,62.3,29.82,SSW,203,6.9,9.6,78,0.00,,,0.01,WUHU216HW,2013-05-24 00:11:00,
2013-05-23 20:16:00,69.2,62.5,29.82,West,270,5.4,8.3,79,0.00,,,0.01,WUHU216HW,2013-05-24 00:16:00,
2013-05-23 20:21:00,69.2,62.5,29.82,SSE,158,3.8,8.3,79,0.00,,,0.01,WUHU216HW,2013-05-24 00:21:00,
2013-05-23 20:26:00,69.1,62.4,29.82,SW,225,6.9,8.5,79,0.00,,,0.01,WUHU216HW,2013-05-24 00:26:00,
2013-05-23 20:31:00,68.9,62.6,29.81,SSW,203,6.7,9.6,80,0.00,,,0.01,WUHU216HW,2013-05-24 00:31:00,
2013-05-23 20:36:00,68.9,62.6,29.81,SSE,158,6.3,9.6,80,0.00,,,0.01,WUHU216HW,2013-05-24 00:36:00,
2013-05-23 20:41:00,68.7,62.4,29.81,WSW,248,4.7,9.2,80,0.00,,,0.01,WUHU216HW,2013-05-24 00:41:00,
2013-05-23 20:46:00,68.5,62.2,29.81,SSW,203,8.1,9.2,80,0.00,,,0.01,WUHU216HW,2013-05-24 00:46:00,
2013-05-23 20:51:00,68.5,62.2,29.81,SSW,203,7.6,9.2,80,0.00,,,0.01,WUHU216HW,2013-05-24 00:51:00,
2013-05-23 20:56:00,68.5,62.2,29.81,SSW,203,6.0,9.2,80,0.00,,,0.01,WUHU216HW,2013-05-24 00:56:00,
2013-05-23 21:01:00,68.3,62.0,29.81,SW,225,8.1,9.2,80,0.00,,,0.01,WUHU216HW,2013-05-24 01:01:00,
2013-05-23 21:06:00,68.3,61.6,29.81,WSW,248,7.6,10.3,79,0.00,,,0.01,WUHU216HW,2013-05-24 01:06:00,
2013-05-23 21:11:00,68.3,61.6,29.81,SSW,203,5.4,10.3,79,0.00,,,0.01,WUHU216HW,2013-05-24 01:11:00,
2013-05-23 21:16:00,68.2,61.9,29.81,SSE,158,9.4,9.4,80,0.00,,,0.01,WUHU216HW,2013-05-24 01:16:00,
2013-05-23 21:21:00,68.3,61.6,29.81,SSW,203,7.6,10.5,79,0.00,,,0.01,WUHU216HW,2013-05-24 01:21:00,
2013-05-23 21:26:00,68.2,61.9,29.81,SSW,203,5.8,10.5,80,0.00,,,0.01,WUHU216HW,2013-05-24 01:26:00,
2013-05-23 21:31:00,68.2,61.9,29.81,SSW,203,7.6,9.4,80,0.00,,,0.01,WUHU216HW,2013-05-24 01:31:00,
2013-05-23 21:36:00,68.0,61.7,29.81,SW,225,5.1,8.5,80,0.00,,,0.01,WUHU216HW,2013-05-24 01:36:00,
2013-05-23 21:41:00,67.8,61.5,29.81,SSE,158,9.2,9.2,80,0.00,,,0.01,WUHU216HW,2013-05-24 01:41:00,
2013-05-23 21:46:00,67.8,61.5,29.81,SSW,203,6.0,9.2,80,0.00,,,0.01,WUHU216HW,2013-05-24 01:46:00,
2013-05-23 21:51:00,67.8,61.5,29.81,South,180,6.3,9.6,80,0.00,,,0.01,WUHU216HW,2013-05-24 01:51:00,
2013-05-23 21:56:00,67.6,61.3,29.81,SSE,158,5.8,9.6,80,0.00,,,0.01,WUHU216HW,2013-05-24 01:56:00,
2013-05-23 22:01:00,67.4,61.1,29.81,SSW,203,5.8,7.2,80,0.00,,,0.01,WUHU216HW,2013-05-24 02:01:00,
2013-05-23 22:06:00,67.3,61.0,29.81,SSW,203,6.3,10.3,80,0.00,,,0.01,WUHU216HW,2013-05-24 02:06:00,
2013-05-23 22:11:00,67.4,61.1,29.80,SSE,158,5.1,10.3,80,0.00,,,0.01,WUHU216HW,2013-05-24 02:11:00,
2013-05-23 22:16:00,65.8,58.5,29.81,SE,135,3.8,9.2,77,0.00,,,0.01,WUHU216HW,2013-05-24 02:16:00,
2013-05-23 22:21:00,63.1,56.9,29.81,SE,135,2.9,8.1,80,0.00,,,0.01,WUHU216HW,2013-05-24 02:21:00,
2013-05-23 22:26:00,61.9,56.7,29.81,SSE,158,5.4,6.9,83,0.00,,,0.01,WUHU216HW,2013-05-24 02:26:00,
2013-05-23 22:31:00,61.5,57.0,29.81,SSE,158,4.0,6.9,85,0.00,,,0.01,WUHU216HW,2013-05-24 02:31:00,
2013-05-23 22:36:00,62.4,58.5,29.81,SSW,203,3.1,6.9,87,0.00,,,0.01,WUHU216HW,2013-05-24 02:36:00,
2013-05-23 22:41:00,63.8,60.5,29.81,SSE,158,7.2,7.2,89,0.00,,,0.01,WUHU216HW,2013-05-24 02:41:00,
2013-05-23 22:46:00,64.9,61.3,29.81,South,180,4.9,8.3,88,0.00,,,0.01,WUHU216HW,2013-05-24 02:46:00,
2013-05-23 22:51:00,65.3,61.3,29.81,South,180,4.3,8.3,87,0.00,,,0.01,WUHU216HW,2013-05-24 02:51:00,
2013-05-23 22:56:00,65.1,60.8,29.81,SSE,158,3.6,7.6,86,0.01,,,0.02,WUHU216HW,2013-05-24 02:56:00,
2013-05-23 23:01:00,64.7,60.7,29.81,SSE,158,4.5,7.2,87,0.01,,,0.02,WUHU216HW,2013-05-24 03:01:00,
2013-05-23 23:06:00,64.6,61.0,29.80,SSW,203,8.1,8.1,88,0.02,,,0.03,WUHU216HW,2013-05-24 03:06:00,
2013-05-23 23:11:00,64.4,60.8,29.80,SSW,203,5.8,8.1,88,0.03,,,0.04,WUHU216HW,2013-05-24 03:11:00,
2013-05-23 23:16:00,64.2,60.6,29.80,South,180,4.7,7.8,88,0.03,,,0.04,WUHU216HW,2013-05-24 03:16:00,
2013-05-23 23:21:00,64.2,60.9,29.80,SSW,203,4.0,9.2,89,0.03,,,0.04,WUHU216HW,2013-05-24 03:21:00,
2013-05-23 23:26:00,64.0,60.7,29.80,SE,135,5.8,9.2,89,0.03,,,0.04,WUHU216HW,2013-05-24 03:26:00,
2013-05-23 23:31:00,64.0,61.0,29.80,SSW,203,4.0,8.3,90,0.03,,,0.04,WUHU216HW,2013-05-24 03:31:00,
2013-05-23 23:36:00,63.8,60.8,29.79,South,180,6.7,7.4,90,0.04,,,0.05,WUHU216HW,2013-05-24 03:36:00,
2013-05-23 23:41:00,63.8,60.8,29.79,SSW,203,6.0,7.4,90,0.04,,,0.05,WUHU216HW,2013-05-24 03:41:00,
2013-05-23 23:46:00,63.8,60.8,29.79,SW,225,5.4,6.9,90,0.04,,,0.05,WUHU216HW,2013-05-24 03:46:00,
2013-05-23 23:51:00,63.7,60.7,29.79,South,180,3.8,6.9,90,0.04,,,0.05,WUHU216HW,2013-05-24 03:51:00,
2013-05-23 23:56:00,63.5,60.5,29.79,SSE,158,2.5,6.7,90,0.03,,,0.05,WUHU216HW,2013-05-24 03:56:00,